Skip Navigation LinksHome page > Weather > Current weather Skip Navigation Links

Current Weather

New Tokyo International (Narita), Tokyo

For information only: do not use for flight planning or navigation.
Latest weather
Observation time Tuesday, January 27, 2015 3:00 AM JST
Local time Tuesday, January 27, 2015 3:24 AM JST
Flight conditions Low Instrument Meteorological Conditions
Winds
Wind direction North (360°)
Wind speed 8 mph
Visibility 1.1 mi.
Present weather light rain showers, mist
Sky condition
Ceiling 200 ft. broken clouds
Cloud layer few clouds 100 ft.
Cloud layer broken clouds 200 ft.
Temperature 48°F
Dewpoint 46°F
Altimeter 29.88 in.Hg
Derived measurements
Relative humidity 93%
Wind chill 45°F
Density altitude -379 ft.
Remarks
No significant changes expected in the next two hours.
METAR RJAA 261800Z 36007KT 1800 -SHRA BR FEW001 BKN002 09/08 Q1012 NOSIG RMK 1ST001 7ST002 A2990

Settings

Location code

InnerDrive.Weather 4.0.5505.0 Release CLR 4.0.30319.34014
Copyright ©2015 Inner Drive Technology. All rights reserved. Portions Copyright ©1986-2015 David Braverman.

Find weather

Site navigation


Skip Navigation Links

Place info

Page info

PayPal - The safer, easier way to pay online!

Return home.

Copyright ©2015 Inner Drive Technology. Purveyors of fine, hand-crafted computer software. Page printed 2015-01-26T18:24:02 UTC.